createdAt,value
2019-02-22T00:04:14.390Z,12.00
2019-02-22T00:07:03.444Z,12.53
2019-02-22T00:09:51.167Z,12.60
2019-02-22T00:12:39.620Z,12.77
2019-02-22T00:15:27.927Z,12.33
2019-02-22T00:18:17.091Z,12.20
2019-02-22T00:21:05.369Z,12.90
2019-02-22T00:23:55.211Z,13.27
2019-02-22T00:26:43.067Z,12.17
2019-02-22T00:29:32.073Z,11.57
2019-02-22T00:32:21.001Z,11.37
2019-02-22T00:35:11.599Z,11.13
2019-02-22T00:37:59.563Z,11.33
2019-02-22T00:40:47.432Z,11.10
2019-02-22T00:43:36.939Z,11.00
2019-02-22T00:46:26.373Z,11.90
2019-02-22T00:49:14.484Z,11.07
2019-02-22T00:52:04.479Z,12.20
2019-02-22T00:54:53.492Z,11.63
2019-02-22T00:57:46.053Z,11.97
2019-02-22T01:00:35.307Z,13.73
2019-02-22T01:03:23.812Z,14.53
2019-02-22T01:06:12.922Z,14.90
2019-02-22T01:09:01.927Z,14.93
2019-02-22T01:11:50.806Z,14.70
2019-02-22T01:14:38.636Z,16.30
2019-02-22T01:17:27.351Z,14.93
2019-02-22T01:20:15.605Z,15.27
2019-02-22T01:23:04.624Z,14.63
2019-02-22T01:28:45.455Z,15.10
2019-02-22T01:31:34.405Z,16.97
2019-02-22T01:34:22.192Z,15.37
2019-02-22T01:37:11.149Z,15.27
2019-02-22T01:40:00.629Z,16.27
2019-02-22T01:42:49.517Z,16.63
2019-02-22T01:45:37.897Z,15.60
2019-02-22T01:48:26.519Z,15.80
2019-02-22T01:51:14.591Z,14.90
2019-02-22T01:54:06.634Z,15.17
2019-02-22T01:56:55.878Z,13.60
2019-02-22T01:59:44.895Z,15.00
2019-02-22T02:02:34.978Z,14.87
2019-02-22T02:05:23.797Z,14.90
2019-02-22T02:08:13.391Z,14.30
2019-02-22T02:11:02.018Z,14.70
2019-02-22T02:13:50.602Z,14.83
2019-02-22T02:16:42.427Z,15.07
2019-02-22T02:19:30.265Z,14.60
2019-02-22T02:22:19.308Z,13.83
2019-02-22T02:25:10.572Z,13.93
2019-02-22T02:27:58.635Z,13.93
2019-02-22T02:30:48.094Z,14.13
2019-02-22T02:33:36.906Z,14.77
2019-02-22T02:36:28.388Z,12.97
2019-02-22T02:39:16.995Z,15.00
2019-02-22T02:42:05.536Z,16.57
2019-02-22T02:44:54.965Z,16.37
2019-02-22T02:47:43.720Z,16.87
2019-02-22T02:50:33.017Z,17.03
2019-02-22T02:53:21.906Z,18.03
2019-02-22T02:56:10.205Z,16.37
2019-02-22T02:58:59.902Z,18.23
2019-02-22T03:01:48.666Z,19.37
2019-02-22T03:04:37.262Z,19.67
2019-02-22T03:10:50.820Z,19.33
2019-02-22T03:13:39.557Z,20.23
2019-02-22T03:16:29.435Z,21.13
2019-02-22T03:19:17.703Z,19.77
2019-02-22T03:22:05.741Z,20.37
2019-02-22T03:24:53.809Z,20.80
2019-02-22T03:27:42.454Z,21.10
2019-02-22T03:30:31.402Z,22.20
2019-02-22T03:33:19.876Z,23.17
2019-02-22T03:36:10.071Z,22.70
2019-02-22T03:38:58.793Z,23.77
2019-02-22T03:41:46.724Z,23.33
2019-02-22T03:44:34.868Z,23.37
2019-02-22T03:47:23.528Z,24.27
2019-02-22T03:50:12.722Z,24.10
2019-02-22T03:53:15.817Z,25.23
2019-02-22T03:56:05.828Z,25.17
2019-02-22T03:58:54.372Z,22.43
2019-02-22T04:01:43.328Z,25.07
2019-02-22T04:04:31.452Z,25.30
2019-02-22T04:07:19.160Z,25.43
2019-02-22T04:10:07.488Z,22.50
2019-02-22T04:12:56.461Z,23.97
2019-02-22T04:15:44.761Z,25.10
2019-02-22T04:18:32.883Z,23.90
2019-02-22T04:21:21.271Z,23.80
2019-02-22T04:24:09.507Z,24.43
2019-02-22T04:26:57.334Z,21.93
2019-02-22T04:29:45.469Z,23.07
2019-02-22T04:32:33.455Z,21.93
2019-02-22T04:35:21.629Z,22.47
2019-02-22T04:38:09.510Z,24.20
2019-02-22T04:40:57.756Z,23.77
2019-02-22T04:43:45.565Z,21.57
2019-02-22T04:46:33.542Z,25.70
2019-02-22T04:49:21.521Z,25.40
2019-02-22T04:52:09.596Z,25.50
2019-02-22T04:54:57.650Z,24.93
2019-02-22T04:57:45.621Z,26.10
2019-02-22T05:00:33.746Z,23.93
2019-02-22T05:03:21.566Z,26.43
2019-02-22T05:06:10.010Z,27.77
2019-02-22T05:08:57.916Z,27.23
2019-02-22T05:11:45.935Z,26.87
2019-02-22T05:14:34.246Z,28.70
2019-02-22T05:17:22.255Z,28.17
2019-02-22T05:20:10.291Z,28.57
2019-02-22T05:23:03.767Z,25.47
2019-02-22T05:25:48.559Z,27.90
2019-02-22T05:28:36.864Z,27.27
2019-02-22T05:31:25.374Z,30.30
2019-02-22T05:34:13.555Z,30.73
2019-02-22T05:37:02.537Z,30.10
2019-02-22T05:39:51.265Z,31.47
2019-02-22T05:42:40.150Z,28.73
2019-02-22T05:45:28.677Z,31.00
2019-02-22T05:48:16.462Z,32.93
2019-02-22T05:51:04.770Z,32.53
2019-02-22T05:53:52.622Z,32.50
2019-02-22T05:56:40.707Z,32.73
2019-02-22T05:59:28.770Z,31.23
2019-02-22T06:02:16.812Z,30.33
2019-02-22T06:05:04.762Z,32.20
2019-02-22T06:07:52.673Z,31.00
2019-02-22T06:10:41.075Z,33.17
2019-02-22T06:13:29.210Z,32.07
2019-02-22T06:16:17.143Z,27.93
2019-02-22T06:19:05.240Z,28.97
2019-02-22T06:21:53.946Z,30.70
2019-02-22T06:24:41.714Z,34.57
2019-02-22T06:27:29.517Z,34.50
2019-02-22T06:30:18.243Z,36.03
2019-02-22T06:33:06.173Z,36.57
2019-02-22T06:35:54.399Z,36.37
2019-02-22T06:38:42.980Z,36.83
2019-02-22T06:41:31.220Z,37.97
2019-02-22T06:44:19.059Z,38.83
2019-02-22T06:47:07.674Z,35.57
2019-02-22T06:49:55.909Z,34.93
2019-02-22T06:52:44.441Z,37.50
2019-02-22T06:55:32.351Z,36.77
2019-02-22T06:58:20.859Z,39.80
2019-02-22T07:01:09.119Z,39.40
2019-02-22T07:03:57.950Z,36.53
2019-02-22T07:06:46.620Z,37.77
2019-02-22T07:09:35.374Z,37.00
2019-02-22T07:15:25.636Z,34.80
2019-02-22T07:18:14.087Z,38.03
2019-02-22T07:21:02.071Z,35.57
2019-02-22T07:23:49.899Z,34.17
2019-02-22T07:26:38.568Z,34.57
2019-02-22T07:29:26.960Z,35.20
2019-02-22T07:32:15.244Z,34.77
2019-02-22T07:35:03.491Z,35.63
2019-02-22T07:37:51.470Z,34.17
2019-02-22T07:40:40.181Z,34.17
2019-02-22T07:43:28.469Z,35.13
2019-02-22T07:46:16.861Z,36.47
2019-02-22T07:49:04.758Z,37.23
2019-02-22T07:51:53.083Z,36.03
2019-02-22T07:54:41.669Z,37.97
2019-02-22T07:57:29.433Z,38.87
2019-02-22T08:00:17.997Z,38.60
2019-02-22T08:03:05.939Z,38.03
2019-02-22T08:05:54.372Z,40.03
2019-02-22T08:08:42.081Z,38.40
2019-02-22T08:11:30.591Z,36.53
2019-02-22T08:14:18.581Z,35.20
2019-02-22T08:17:06.471Z,37.20
2019-02-22T08:19:54.998Z,36.63
2019-02-22T08:25:30.181Z,37.70
2019-02-22T08:28:17.989Z,37.23
2019-02-22T08:31:05.878Z,37.37
2019-02-22T08:33:54.060Z,37.23
2019-02-22T08:36:42.682Z,37.27
2019-02-22T08:39:31.120Z,37.63
2019-02-22T08:42:19.760Z,38.27
2019-02-22T08:45:09.662Z,39.07
2019-02-22T08:50:49.460Z,38.73
2019-02-22T08:53:38.060Z,38.60
2019-02-22T08:56:26.116Z,38.07
2019-02-22T08:59:13.940Z,37.23
2019-02-22T09:02:02.651Z,36.67
2019-02-22T09:07:37.868Z,37.80
2019-02-22T09:10:25.675Z,39.30
2019-02-22T09:13:14.148Z,37.47
2019-02-22T09:16:02.613Z,40.40
2019-02-22T09:18:50.823Z,38.30
2019-02-22T09:21:38.781Z,40.30
2019-02-22T09:24:27.161Z,40.93
2019-02-22T09:27:15.165Z,41.53
2019-02-22T09:30:03.369Z,41.20
2019-02-22T09:32:51.405Z,41.83
2019-02-22T09:35:39.830Z,41.17
2019-02-22T09:38:28.458Z,38.27
2019-02-22T09:41:16.274Z,39.03
2019-02-22T09:44:04.573Z,39.63
2019-02-22T09:46:53.140Z,36.23
2019-02-22T09:49:41.443Z,37.37
2019-02-22T09:52:29.991Z,37.07
2019-02-22T09:55:18.275Z,38.63
2019-02-22T09:58:07.067Z,37.40
2019-02-22T10:00:55.464Z,39.40
2019-02-22T10:03:43.868Z,36.40
2019-02-22T10:06:32.240Z,35.13
2019-02-22T10:09:20.332Z,36.33
2019-02-22T10:12:08.504Z,34.47
2019-02-22T10:14:57.130Z,34.00
2019-02-22T10:17:45.492Z,32.37
2019-02-22T10:20:33.677Z,34.67
2019-02-22T10:23:21.849Z,33.20
2019-02-22T10:26:10.135Z,33.73
2019-02-22T10:28:58.375Z,33.87
2019-02-22T10:31:46.148Z,34.37
2019-02-22T10:34:34.725Z,33.73
2019-02-22T10:37:22.949Z,32.43
2019-02-22T10:40:11.009Z,32.33
2019-02-22T10:42:59.236Z,31.77
2019-02-22T10:45:48.134Z,32.27
2019-02-22T10:48:36.841Z,33.37
2019-02-22T10:51:25.454Z,33.47
2019-02-22T10:54:13.229Z,32.57
2019-02-22T10:57:01.903Z,31.77
2019-02-22T10:59:49.847Z,29.60
2019-02-22T11:02:39.650Z,28.80
2019-02-22T11:05:28.551Z,27.93
2019-02-22T11:08:17.311Z,28.33
2019-02-22T11:11:05.054Z,28.30
2019-02-22T11:13:53.166Z,27.70
2019-02-22T11:16:41.946Z,28.97
2019-02-22T11:19:29.887Z,27.23
2019-02-22T11:22:18.699Z,26.53
2019-02-22T11:25:07.248Z,26.83
2019-02-22T11:27:55.748Z,27.07
2019-02-22T11:30:43.832Z,26.53
2019-02-22T11:33:31.719Z,25.73
2019-02-22T11:36:19.783Z,25.27
2019-02-22T11:39:08.564Z,24.10
2019-02-22T11:41:57.533Z,24.20
2019-02-22T11:44:46.144Z,22.80
2019-02-22T11:47:34.419Z,24.07
2019-02-22T11:50:23.013Z,23.73
2019-02-22T11:53:11.506Z,23.80
2019-02-22T11:55:59.361Z,23.17
2019-02-22T11:58:48.865Z,23.27
2019-02-22T12:01:37.839Z,21.23
2019-02-22T12:04:26.034Z,21.67
2019-02-22T12:07:14.177Z,19.70
2019-02-22T12:10:02.224Z,19.77
2019-02-22T12:12:50.754Z,19.77
2019-02-22T12:18:31.392Z,20.37
2019-02-22T12:21:20.136Z,18.23
2019-02-22T12:24:07.906Z,18.83
2019-02-22T12:26:55.968Z,17.53
2019-02-22T12:29:44.138Z,18.20
2019-02-22T12:32:32.578Z,17.20
2019-02-22T12:35:20.958Z,16.00
2019-02-22T12:38:09.109Z,15.43
2019-02-22T12:40:57.175Z,15.47
2019-02-22T12:43:44.983Z,14.73
2019-02-22T12:46:33.193Z,13.40
2019-02-22T12:49:21.405Z,15.27
2019-02-22T12:52:10.769Z,14.17
2019-02-22T12:54:58.911Z,14.80
2019-02-22T12:57:47.051Z,14.13
2019-02-22T13:00:35.220Z,15.83
2019-02-22T13:03:23.481Z,14.73
2019-02-22T13:06:11.625Z,13.50
2019-02-22T13:09:00.498Z,15.17
2019-02-22T13:11:48.383Z,14.53
2019-02-22T13:14:37.139Z,14.13
2019-02-22T13:17:30.712Z,13.30
2019-02-22T13:20:15.490Z,13.93
2019-02-22T13:23:03.800Z,13.77
2019-02-22T13:25:52.220Z,13.23
2019-02-22T13:28:40.856Z,13.77
2019-02-22T13:31:30.360Z,13.40
2019-02-22T13:34:20.946Z,12.90
2019-02-22T13:37:09.453Z,12.60
2019-02-22T13:39:58.060Z,12.23
2019-02-22T13:42:46.349Z,12.73
2019-02-22T13:45:34.874Z,11.93
2019-02-22T13:48:22.903Z,12.07
2019-02-22T13:51:11.488Z,12.40
2019-02-22T13:54:00.498Z,12.53
2019-02-22T13:56:49.116Z,13.60
2019-02-22T13:59:37.889Z,13.80
2019-02-22T14:02:26.418Z,12.50
2019-02-22T14:05:15.242Z,12.60
2019-02-22T14:08:03.831Z,12.27
2019-02-22T14:10:51.880Z,12.30
2019-02-22T14:13:40.294Z,13.43
2019-02-22T14:16:28.985Z,12.13
2019-02-22T14:19:17.951Z,12.93
2019-02-22T14:22:05.829Z,12.00
2019-02-22T14:24:53.579Z,11.07
2019-02-22T14:27:42.162Z,11.90
2019-02-22T14:30:30.841Z,10.77
2019-02-22T14:33:19.444Z,11.17
2019-02-22T14:36:07.952Z,10.57
2019-02-22T14:38:55.807Z,12.13
2019-02-22T14:41:44.516Z,10.70
2019-02-22T14:44:33.666Z,10.33
2019-02-22T14:47:21.607Z,10.03
2019-02-22T14:50:10.035Z,10.20
2019-02-22T14:52:58.752Z,10.67
2019-02-22T14:55:46.855Z,10.10
2019-02-22T14:58:35.129Z,10.30
2019-02-22T15:01:23.870Z,10.10
2019-02-22T15:04:12.323Z,8.93
2019-02-22T15:07:00.307Z,9.20
2019-02-22T15:09:49.105Z,9.47
2019-02-22T15:12:36.918Z,9.83
2019-02-22T15:18:30.034Z,9.27
2019-02-22T15:21:17.828Z,9.90
2019-02-22T15:24:05.505Z,9.13
2019-02-22T15:26:54.230Z,8.73
2019-02-22T15:29:43.009Z,9.70
2019-02-22T15:32:31.269Z,9.33
2019-02-22T15:35:19.796Z,9.43
2019-02-22T15:38:10.142Z,9.00
2019-02-22T15:40:58.460Z,9.07
2019-02-22T15:43:46.220Z,9.70
2019-02-22T15:46:37.082Z,10.17
2019-02-22T15:49:25.133Z,9.03
2019-02-22T15:52:13.841Z,9.57
2019-02-22T15:55:01.944Z,9.13
2019-02-22T15:57:49.805Z,9.30
2019-02-22T16:00:37.700Z,9.33
2019-02-22T16:03:29.352Z,8.77
2019-02-22T16:06:18.232Z,9.20
2019-02-22T16:15:31.502Z,9.60
2019-02-22T16:18:19.474Z,9.40
2019-02-22T16:21:07.958Z,9.07
2019-02-22T16:23:56.285Z,7.67
2019-02-22T16:26:45.819Z,7.53
2019-02-22T16:29:33.666Z,7.00
2019-02-22T16:32:21.533Z,6.87
2019-02-22T16:38:01.831Z,6.77
2019-02-22T16:40:49.916Z,6.30
2019-02-22T16:43:38.404Z,6.20
2019-02-22T16:46:34.393Z,6.00
2019-02-22T16:49:16.253Z,6.23
2019-02-22T16:52:04.477Z,6.30
2019-02-22T16:54:53.117Z,6.10
2019-02-22T16:57:41.157Z,5.60
2019-02-22T17:00:29.133Z,5.43
2019-02-22T17:03:17.545Z,4.93
2019-02-22T17:06:05.872Z,5.33
2019-02-22T17:08:54.578Z,4.97
2019-02-22T17:11:43.198Z,4.90
2019-02-22T17:14:31.500Z,4.40
2019-02-22T17:17:19.599Z,4.87
2019-02-22T17:20:08.136Z,5.10
2019-02-22T17:22:56.022Z,4.30
2019-02-22T17:25:43.923Z,4.23
2019-02-22T17:28:31.948Z,3.80
2019-02-22T17:31:19.886Z,4.07
2019-02-22T17:34:07.802Z,4.40
2019-02-22T17:36:55.974Z,4.30
2019-02-22T17:39:45.972Z,4.43
2019-02-22T17:42:34.332Z,4.23
2019-02-22T17:45:22.807Z,4.30
2019-02-22T17:48:11.209Z,3.87
2019-02-22T17:50:59.325Z,4.10
2019-02-22T17:53:47.450Z,4.20
2019-02-22T17:56:35.859Z,4.20
2019-02-22T17:59:23.982Z,4.83
2019-02-22T18:02:11.906Z,5.47
2019-02-22T18:05:00.153Z,5.33
2019-02-22T18:07:47.979Z,5.10
2019-02-22T18:10:36.753Z,5.17
2019-02-22T18:13:24.973Z,5.70
2019-02-22T18:16:13.103Z,6.83
2019-02-22T18:19:01.225Z,6.37
2019-02-22T18:21:49.254Z,6.90
2019-02-22T18:24:37.458Z,7.50
2019-02-22T18:27:25.575Z,7.53
2019-02-22T18:30:13.587Z,7.23
2019-02-22T18:33:01.683Z,7.47
2019-02-22T18:35:49.568Z,8.13
2019-02-22T18:38:38.349Z,7.40
2019-02-22T18:41:26.403Z,7.40
2019-02-22T18:44:14.146Z,7.17
2019-02-22T18:47:02.804Z,7.00
2019-02-22T18:49:51.255Z,7.23
2019-02-22T18:52:39.806Z,7.90
2019-02-22T18:55:27.924Z,7.73
2019-02-22T18:58:16.222Z,7.77
2019-02-22T19:01:04.554Z,7.73
2019-02-22T19:07:12.498Z,7.93
2019-02-22T19:10:01.237Z,8.70
2019-02-22T19:12:49.894Z,10.03
2019-02-22T19:15:37.997Z,6.70
2019-02-22T19:18:26.347Z,5.87
2019-02-22T19:21:14.953Z,5.27
2019-02-22T19:24:03.045Z,4.40
2019-02-22T19:26:51.817Z,4.30
2019-02-22T19:29:39.873Z,3.63
2019-02-22T19:32:28.444Z,4.20
2019-02-22T19:35:16.353Z,4.07
2019-02-22T19:38:04.245Z,4.43
2019-02-22T19:40:52.205Z,4.37
2019-02-22T19:43:40.371Z,4.50
2019-02-22T19:46:28.880Z,4.13
2019-02-22T19:49:17.502Z,5.20
2019-02-22T19:52:05.313Z,6.00
2019-02-22T19:54:53.248Z,5.30
2019-02-22T19:57:42.109Z,5.17
2019-02-22T20:00:30.366Z,6.07
2019-02-22T20:03:18.284Z,6.13
2019-02-22T20:06:06.944Z,5.83
2019-02-22T20:08:55.596Z,6.20
2019-02-22T20:17:15.985Z,6.30
2019-02-22T20:20:04.637Z,5.93
2019-02-22T20:22:52.613Z,6.50
2019-02-22T20:25:41.607Z,6.17
2019-02-22T20:28:31.148Z,6.43
2019-02-22T20:31:20.751Z,6.50
2019-02-22T20:34:08.849Z,6.40
2019-02-22T20:36:57.107Z,6.70
2019-02-22T20:39:45.861Z,7.00
2019-02-22T20:42:34.847Z,7.13
2019-02-22T20:45:23.114Z,6.97
2019-02-22T20:48:11.963Z,6.90
2019-02-22T20:51:00.818Z,7.43
2019-02-22T20:53:49.182Z,6.90
2019-02-22T20:56:37.756Z,7.63
2019-02-22T20:59:25.545Z,7.27
2019-02-22T21:02:13.401Z,7.60
2019-02-22T21:05:01.937Z,7.50
2019-02-22T21:07:49.967Z,8.03
2019-02-22T21:10:41.592Z,6.97
2019-02-22T21:13:32.655Z,7.13
2019-02-22T21:16:21.568Z,6.73
2019-02-22T21:19:09.404Z,6.67
2019-02-22T21:24:50.018Z,6.97
2019-02-22T21:27:38.677Z,6.33
2019-02-22T21:30:26.993Z,6.90
2019-02-22T21:33:14.746Z,6.03
2019-02-22T21:36:02.655Z,6.40
2019-02-22T21:38:50.648Z,7.10
2019-02-22T21:41:39.109Z,6.47
2019-02-22T21:47:19.185Z,7.00
2019-02-22T21:50:07.185Z,7.27
2019-02-22T21:52:55.301Z,6.60
2019-02-22T21:55:43.069Z,7.03
2019-02-22T21:58:30.941Z,7.07
2019-02-22T22:07:29.428Z,7.77
2019-02-22T22:10:18.082Z,7.40
2019-02-22T22:13:06.603Z,7.63
2019-02-22T22:15:54.511Z,7.50
2019-02-22T22:18:42.776Z,7.83
2019-02-22T22:21:31.508Z,8.47
2019-02-22T22:24:19.934Z,8.17
2019-02-22T22:27:08.334Z,7.53
2019-02-22T22:29:56.500Z,9.00
2019-02-22T22:32:44.499Z,8.40
2019-02-22T22:35:32.498Z,8.27
2019-02-22T22:38:20.359Z,8.50
2019-02-22T22:41:08.343Z,8.27
2019-02-22T22:43:57.058Z,8.60
2019-02-22T22:46:45.681Z,8.43
2019-02-22T22:49:34.229Z,8.37
2019-02-22T22:52:22.924Z,8.27
2019-02-22T22:55:11.055Z,8.30
2019-02-22T23:01:05.869Z,8.80
2019-02-22T23:03:54.304Z,9.43
2019-02-22T23:06:42.842Z,9.97
2019-02-22T23:09:30.893Z,11.03
2019-02-22T23:12:19.204Z,10.03
2019-02-22T23:15:07.372Z,10.10
2019-02-22T23:17:55.689Z,10.17
2019-02-22T23:20:43.938Z,9.93
2019-02-22T23:23:31.925Z,10.53
2019-02-22T23:26:19.815Z,11.07
2019-02-22T23:29:08.432Z,11.60
2019-02-22T23:31:56.414Z,10.53
2019-02-22T23:34:44.684Z,11.23
2019-02-22T23:37:32.821Z,11.97
2019-02-22T23:40:20.746Z,11.60
2019-02-22T23:43:08.912Z,11.53
2019-02-22T23:45:57.009Z,11.73
2019-02-22T23:48:45.064Z,10.20
2019-02-22T23:51:33.165Z,10.20
2019-02-22T23:54:21.280Z,10.60
2019-02-22T23:57:09.734Z,10.13
2019-02-22T23:59:57.592Z,10.70
